Time;durP1;ratioP1;P1;durP2;ratioP2;P2;SDS_P1;SDS_P2;PMS_P1;PMS_P2;Temp;Humidity;BMP_temperature;BMP_pressure;BME280_temperature;BME280_humidity;BME280_pressure;Samples;Min_cycle;Max_cycle;Signal;HPM_P1;HPM_P2
2022/06/26 00:00:44;;;;;;;20.42;12.48;;;17.20;99.90;;;;;;5068296;28;20063;-78
2022/06/26 00:03:10;;;;;;;16.27;13.07;;;17.20;99.90;;;;;;5079022;28;20048;-77
2022/06/26 00:05:35;;;;;;;19.45;15.65;;;17.10;99.90;;;;;;5049300;28;20116;-76
2022/06/26 00:08:02;;;;;;;19.75;16.17;;;17.00;99.90;;;;;;5070898;28;20403;-77
2022/06/26 00:10:27;;;;;;;19.77;14.90;;;17.10;99.90;;;;;;5049584;28;20036;-77
2022/06/26 00:12:53;;;;;;;16.40;14.50;;;16.90;99.90;;;;;;5084510;28;20110;-77
2022/06/26 00:15:19;;;;;;;17.20;13.63;;;17.00;99.90;;;;;;5071856;28;20036;-77
2022/06/26 00:17:44;;;;;;;18.45;14.55;;;17.10;99.90;;;;;;5078563;28;20479;-78
2022/06/26 00:20:10;;;;;;;15.85;13.60;;;17.10;99.90;;;;;;5070424;28;20120;-77
2022/06/26 00:22:36;;;;;;;17.58;13.50;;;16.90;99.90;;;;;;5074455;28;20067;-78
2022/06/26 00:25:02;;;;;;;24.05;17.90;;;16.80;99.90;;;;;;5083646;28;20101;-78
2022/06/26 00:27:28;;;;;;;20.77;15.73;;;17.00;99.90;;;;;;5050527;28;20040;-77
2022/06/26 00:29:54;;;;;;;19.75;16.67;;;16.80;99.90;;;;;;5067603;28;20394;-78
2022/06/26 00:32:19;;;;;;;20.60;16.77;;;17.00;99.90;;;;;;5058670;28;20068;-77
2022/06/26 00:34:45;;;;;;;26.38;18.27;;;17.00;99.90;;;;;;5071791;28;20087;-77
2022/06/26 00:37:10;;;;;;;18.92;16.85;;;17.00;99.90;;;;;;5064632;28;20124;-77
2022/06/26 00:39:36;;;;;;;17.83;14.35;;;17.10;99.90;;;;;;5052170;28;20051;-76
2022/06/26 00:42:02;;;;;;;21.13;15.55;;;16.80;99.90;;;;;;5046729;28;20289;-76
2022/06/26 00:44:29;;;;;;;17.98;14.98;;;16.90;99.90;;;;;;5041546;28;20033;-79
2022/06/26 00:46:55;;;;;;;18.50;12.48;;;17.30;99.90;;;;;;5058003;28;20526;-77
2022/06/26 00:49:21;;;;;;;20.85;14.32;;;17.30;99.90;;;;;;5073827;28;20123;-78
2022/06/26 00:51:52;;;;;;;22.92;14.27;;;17.20;99.90;;;;;;5043816;28;20139;-79
2022/06/26 00:54:19;;;;;;;18.98;13.40;;;17.30;99.90;;;;;;5053052;28;20385;-76
2022/06/26 00:56:45;;;;;;;27.98;15.98;;;17.30;99.90;;;;;;5068230;28;20094;-77
2022/06/26 00:59:11;;;;;;;17.02;14.60;;;17.50;99.90;;;;;;5032390;28;20075;-77
2022/06/26 01:01:36;;;;;;;26.63;13.75;;;17.50;99.90;;;;;;5049022;28;20155;-77
2022/06/26 01:04:03;;;;;;;18.50;13.23;;;17.40;99.90;;;;;;5047092;28;20068;-77
2022/06/26 01:06:30;;;;;;;19.05;12.32;;;17.30;99.90;;;;;;5064129;28;20040;-77
2022/06/26 01:08:58;;;;;;;13.80;11.00;;;17.30;99.90;;;;;;5046148;28;20041;-78
2022/06/26 01:11:25;;;;;;;18.02;11.80;;;17.40;99.90;;;;;;5067598;28;20043;-77
2022/06/26 01:13:53;;;;;;;13.80;11.48;;;17.50;99.90;;;;;;5047373;28;20048;-77
2022/06/26 01:16:20;;;;;;;19.63;12.20;;;17.50;99.90;;;;;;5064292;28;20049;-77
2022/06/26 01:18:49;;;;;;;14.43;10.35;;;17.50;99.90;;;;;;5049712;28;20051;-77
2022/06/26 01:21:16;;;;;;;11.00;8.05;;;17.30;99.90;;;;;;5071040;28;20043;-77
2022/06/26 01:23:42;;;;;;;12.50;9.82;;;17.30;99.90;;;;;;5067603;28;20475;-77
2022/06/26 01:26:07;;;;;;;13.73;9.07;;;17.50;99.90;;;;;;5064038;28;20052;-78
2022/06/26 01:28:33;;;;;;;15.65;10.13;;;17.50;99.90;;;;;;5064670;28;20037;-76
2022/06/26 01:30:59;;;;;;;14.40;8.95;;;17.30;99.90;;;;;;5066846;28;20111;-77
2022/06/26 01:33:24;;;;;;;10.55;9.50;;;17.30;99.90;;;;;;5070447;28;20036;-76
2022/06/26 01:35:50;;;;;;;12.95;8.07;;;17.40;99.90;;;;;;5058340;28;20033;-77
2022/06/26 01:38:21;;;;;;;11.73;7.85;;;17.40;99.90;;;;;;5069615;28;20043;-76
2022/06/26 01:40:49;;;;;;;11.13;7.57;;;17.30;99.90;;;;;;5057354;28;20069;-76
2022/06/26 01:43:18;;;;;;;10.95;7.78;;;17.40;99.90;;;;;;5046490;28;20091;-77
2022/06/26 01:45:49;;;;;;;11.63;7.37;;;17.50;99.90;;;;;;5043866;22;20509;-77
2022/06/26 01:48:16;;;;;;;12.95;6.85;;;17.50;99.90;;;;;;5058592;28;20044;-77
2022/06/26 01:50:42;;;;;;;7.88;5.93;;;17.30;99.90;;;;;;5066852;28;20124;-77
2022/06/26 01:53:08;;;;;;;7.15;6.05;;;17.50;99.90;;;;;;5031966;28;20048;-77
2022/06/26 01:55:34;;;;;;;10.27;6.65;;;17.30;99.90;;;;;;5070918;28;20451;-77
2022/06/26 01:58:03;;;;;;;8.52;5.75;;;17.40;99.90;;;;;;5049944;28;20041;-77
2022/06/26 02:00:33;;;;;;;9.68;6.30;;;17.50;99.90;;;;;;5066316;28;20090;-77
2022/06/26 02:02:59;;;;;;;6.82;5.32;;;17.50;99.90;;;;;;5063418;28;20517;-77
2022/06/26 02:05:26;;;;;;;7.22;5.70;;;17.40;99.90;;;;;;5063350;28;20154;-78
2022/06/26 02:07:52;;;;;;;12.15;6.80;;;17.50;99.90;;;;;;5072544;28;20040;-77
2022/06/26 02:15:50;;;;;;;13.88;7.25;;;17.50;99.90;;;;;;5057810;28;20048;-78
2022/06/26 02:18:15;;;;;;;15.65;7.53;;;17.50;99.90;;;;;;5070982;28;20066;-79
2022/06/26 02:20:41;;;;;;;8.23;5.25;;;17.40;99.90;;;;;;5049600;28;20474;-79
2022/06/26 02:23:07;;;;;;;9.77;5.22;;;17.20;99.90;;;;;;5048571;28;20711;-80
2022/06/26 02:25:33;;;;;;;7.18;5.47;;;17.30;99.90;;;;;;5062519;28;20510;-79
2022/06/26 02:27:58;;;;;;;8.95;5.10;;;17.30;99.90;;;;;;5063968;28;20115;-78
2022/06/26 02:30:24;;;;;;;10.02;4.55;;;17.20;99.90;;;;;;5075981;28;20044;-78
2022/06/26 02:32:50;;;;;;;7.10;4.82;;;17.30;99.90;;;;;;5046670;28;20098;-79
2022/06/26 02:35:15;;;;;;;6.95;5.63;;;17.00;99.90;;;;;;5082804;28;20036;-78
2022/06/26 02:37:41;;;;;;;10.38;5.07;;;17.20;99.90;;;;;;5035246;28;20090;-79
2022/06/26 02:40:07;;;;;;;7.13;6.07;;;17.10;99.90;;;;;;5063795;28;20443;-81
2022/06/26 02:42:33;;;;;;;6.00;4.80;;;17.20;99.90;;;;;;5066654;28;20036;-80
2022/06/26 02:44:59;;;;;;;6.22;5.47;;;17.10;99.90;;;;;;5046257;28;20048;-80
2022/06/26 02:47:26;;;;;;;9.75;6.00;;;17.00;99.90;;;;;;5060173;28;20106;-79
2022/06/26 02:49:51;;;;;;;8.63;5.18;;;17.00;99.90;;;;;;5084781;28;20490;-80
2022/06/26 02:52:17;;;;;;;10.55;5.85;;;16.90;99.90;;;;;;5038206;28;20165;-80
2022/06/26 02:54:43;;;;;;;8.45;5.10;;;16.90;99.90;;;;;;5055175;28;20040;-80
2022/06/26 02:57:08;;;;;;;9.73;6.20;;;17.00;99.90;;;;;;5062762;28;20040;-80
2022/06/26 02:59:34;;;;;;;9.77;7.35;;;17.00;99.90;;;;;;5080137;28;20449;-79
2022/06/26 03:02:00;;;;;;;10.00;5.93;;;16.80;99.90;;;;;;5074648;28;20036;-80
2022/06/26 03:04:25;;;;;;;9.05;5.82;;;17.10;99.90;;;;;;5089733;28;20047;-79
2022/06/26 03:06:51;;;;;;;11.27;6.15;;;17.00;99.90;;;;;;5074427;28;20579;-79
2022/06/26 03:09:17;;;;;;;9.32;6.57;;;16.80;99.90;;;;;;5089763;28;20047;-79
2022/06/26 03:11:42;;;;;;;13.30;7.53;;;16.90;99.90;;;;;;5055714;28;20039;-79
2022/06/26 03:14:08;;;;;;;7.13;5.70;;;17.00;99.90;;;;;;5078219;28;20916;-79
2022/06/26 03:16:34;;;;;;;9.15;7.00;;;16.90;99.90;;;;;;5066102;28;20405;-79
2022/06/26 03:19:00;;;;;;;9.18;6.15;;;16.70;99.90;;;;;;5056605;28;20131;-78
2022/06/26 03:21:26;;;;;;;8.18;6.63;;;16.80;99.90;;;;;;5055518;28;20123;-79
2022/06/26 03:24:04;;;;;;;10.98;6.03;;;16.90;99.90;;;;;;5067505;28;20048;-79
2022/06/26 03:26:31;;;;;;;6.95;5.55;;;16.70;99.90;;;;;;5031724;28;20152;-79
2022/06/26 03:28:57;;;;;;;7.47;5.88;;;16.90;99.90;;;;;;5032656;28;20048;-78
2022/06/26 03:31:22;;;;;;;8.77;6.20;;;17.00;99.90;;;;;;5067706;28;20044;-78
2022/06/26 03:33:48;;;;;;;8.45;5.13;;;16.70;99.90;;;;;;5049787;28;20033;-79
2022/06/26 03:36:14;;;;;;;7.15;5.47;;;16.80;99.90;;;;;;5080369;28;20040;-79
2022/06/26 03:38:40;;;;;;;7.28;4.15;;;16.80;99.90;;;;;;5072531;28;20036;-80
2022/06/26 03:41:06;;;;;;;6.70;5.03;;;16.90;99.90;;;;;;5074834;28;20079;-79
2022/06/26 03:43:31;;;;;;;5.05;4.30;;;17.00;99.90;;;;;;5074539;28;20040;-80
2022/06/26 03:45:57;;;;;;;6.28;4.72;;;16.90;99.90;;;;;;5060149;28;20090;-81
2022/06/26 03:48:23;;;;;;;6.50;4.30;;;16.90;99.90;;;;;;5074953;28;20040;-79
2022/06/26 03:50:49;;;;;;;8.32;4.72;;;16.80;99.90;;;;;;5081135;28;20075;-78
2022/06/26 03:53:14;;;;;;;4.95;4.45;;;17.10;99.90;;;;;;5050553;28;20232;-79
2022/06/26 03:55:41;;;;;;;4.43;3.92;;;16.80;99.90;;;;;;5055396;28;20101;-79
2022/06/26 03:58:07;;;;;;;5.03;4.53;;;17.00;99.90;;;;;;5077389;28;20056;-78
2022/06/26 04:00:32;;;;;;;6.82;3.70;;;16.80;99.90;;;;;;5066996;28;20411;-79
2022/06/26 04:03:02;;;;;;;6.03;4.20;;;16.90;99.90;;;;;;5066066;28;20043;-78
2022/06/26 04:05:28;;;;;;;9.35;5.93;;;16.90;99.90;;;;;;5065685;28;20052;-78
2022/06/26 04:07:54;;;;;;;5.25;4.35;;;17.00;99.90;;;;;;5072836;28;20047;-79
2022/06/26 04:10:19;;;;;;;5.15;4.45;;;16.90;99.90;;;;;;5032543;28;20055;-79
2022/06/26 04:12:45;;;;;;;6.28;4.65;;;17.00;99.90;;;;;;5055624;28;20548;-79
2022/06/26 04:15:11;;;;;;;4.40;3.88;;;17.00;99.90;;;;;;5055983;28;20486;-78
2022/06/26 04:17:36;;;;;;;7.82;4.72;;;17.10;99.90;;;;;;5068599;28;20033;-80
2022/06/26 04:20:03;;;;;;;5.55;5.05;;;17.00;99.90;;;;;;5044767;28;20036;-79
2022/06/26 04:22:28;;;;;;;7.38;4.68;;;17.20;99.90;;;;;;5080481;28;20047;-78
2022/06/26 04:24:54;;;;;;;6.28;4.50;;;17.00;99.90;;;;;;5051826;28;20818;-78
2022/06/26 04:27:20;;;;;;;5.95;5.32;;;17.00;99.90;;;;;;5067718;28;20044;-80
2022/06/26 04:29:46;;;;;;;7.45;5.10;;;17.20;99.90;;;;;;5054171;28;20048;-79
2022/06/26 04:32:12;;;;;;;4.72;4.07;;;17.00;99.90;;;;;;5047671;28;20089;-81
2022/06/26 04:34:37;;;;;;;5.45;4.50;;;17.00;99.90;;;;;;5070850;28;20032;-80
2022/06/26 04:37:04;;;;;;;8.38;5.45;;;17.10;99.90;;;;;;5081824;28;20040;-78
2022/06/26 04:39:30;;;;;;;5.40;4.70;;;16.90;99.90;;;;;;5081727;28;20039;-79
2022/06/26 04:41:56;;;;;;;5.88;4.95;;;17.10;99.90;;;;;;5067468;28;20044;-80
2022/06/26 04:44:21;;;;;;;6.65;4.95;;;17.00;99.90;;;;;;5085806;28;20135;-76
2022/06/26 04:46:48;;;;;;;7.53;5.72;;;17.20;99.90;;;;;;5078785;28;20052;-79
2022/06/26 04:49:14;;;;;;;6.65;4.50;;;17.20;99.90;;;;;;5069448;28;20067;-80
2022/06/26 04:51:39;;;;;;;6.80;5.80;;;17.00;99.90;;;;;;5053155;28;20152;-80
2022/06/26 04:54:07;;;;;;;8.57;5.65;;;17.10;99.90;;;;;;5035310;28;20214;-79
2022/06/26 04:56:33;;;;;;;5.85;5.30;;;17.20;99.90;;;;;;5081372;28;20496;-80
2022/06/26 04:58:59;;;;;;;5.57;5.18;;;17.30;99.90;;;;;;5042194;28;20181;-79
2022/06/26 05:01:26;;;;;;;6.75;5.47;;;17.10;99.90;;;;;;5050550;28;20060;-81
2022/06/26 05:03:51;;;;;;;6.55;5.15;;;17.20;99.90;;;;;;5062136;28;20128;-79
2022/06/26 05:06:17;;;;;;;7.28;5.18;;;17.30;99.90;;;;;;5065133;28;20060;-79
2022/06/26 05:08:43;;;;;;;6.50;4.90;;;17.10;99.90;;;;;;5075847;28;20084;-79
2022/06/26 05:11:09;;;;;;;6.20;5.57;;;17.10;99.90;;;;;;5064041;28;20403;-79
2022/06/26 05:13:35;;;;;;;6.40;5.60;;;17.10;99.90;;;;;;5057516;28;20169;-79
2022/06/26 05:16:01;;;;;;;6.22;5.63;;;17.20;99.90;;;;;;5058392;28;20048;-79
2022/06/26 05:18:27;;;;;;;8.75;6.75;;;17.30;99.90;;;;;;5067076;28;20048;-79
2022/06/26 05:20:53;;;;;;;8.13;6.53;;;17.50;99.90;;;;;;5062791;28;20048;-78
2022/06/26 05:23:19;;;;;;;9.80;7.72;;;17.60;99.90;;;;;;5066387;28;20432;-78
2022/06/26 05:25:45;;;;;;;7.78;7.05;;;17.40;99.90;;;;;;5070708;28;20036;-79
2022/06/26 05:28:11;;;;;;;12.35;8.15;;;17.50;99.90;;;;;;5064924;28;20036;-78
2022/06/26 05:30:37;;;;;;;11.82;8.77;;;17.50;99.90;;;;;;5047551;28;20253;-81
2022/06/26 05:33:04;;;;;;;10.13;8.60;;;17.70;99.90;;;;;;5063555;28;20052;-78
2022/06/26 05:35:30;;;;;;;11.27;9.85;;;17.50;99.90;;;;;;5047884;28;20072;-80
2022/06/26 05:37:57;;;;;;;13.23;11.45;;;17.80;99.90;;;;;;5073395;28;20514;-79
2022/06/26 05:40:22;;;;;;;13.27;11.98;;;17.50;99.90;;;;;;5050742;28;20165;-79
2022/06/26 05:42:48;;;;;;;15.48;12.27;;;17.60;99.90;;;;;;5063391;28;20044;-74
2022/06/26 05:45:14;;;;;;;16.40;12.13;;;17.60;99.90;;;;;;5076232;28;20554;-80
2022/06/26 05:47:39;;;;;;;15.65;12.88;;;17.60;99.90;;;;;;5035774;28;20093;-79
2022/06/26 05:50:06;;;;;;;19.83;17.27;;;17.80;99.90;;;;;;5050971;28;20106;-79
2022/06/26 05:52:32;;;;;;;20.17;18.10;;;17.60;99.90;;;;;;5061189;28;20044;-78
2022/06/26 05:54:58;;;;;;;18.70;16.42;;;17.90;99.90;;;;;;5074983;28;20056;-79
2022/06/26 05:57:25;;;;;;;21.67;18.45;;;17.70;99.90;;;;;;5055565;28;20052;-79
2022/06/26 05:59:51;;;;;;;22.10;19.20;;;17.90;99.90;;;;;;5068684;28;20039;-80
2022/06/26 06:02:17;;;;;;;24.60;20.95;;;17.90;99.90;;;;;;5044739;28;20394;-79
2022/06/26 06:04:43;;;;;;;25.73;23.05;;;17.60;99.90;;;;;;5061829;28;20036;-75
2022/06/26 06:07:08;;;;;;;28.45;25.20;;;17.90;99.90;;;;;;5069432;28;20246;-80
2022/06/26 06:09:34;;;;;;;27.90;24.90;;;17.80;99.90;;;;;;5083487;28;20040;-80
2022/06/26 06:12:00;;;;;;;33.17;24.27;;;17.80;99.90;;;;;;5067455;28;20173;-81
2022/06/26 06:14:26;;;;;;;27.42;24.58;;;17.90;99.90;;;;;;5045602;28;20127;-81
2022/06/26 06:16:52;;;;;;;27.50;24.65;;;18.10;99.90;;;;;;5042335;28;20044;-81
2022/06/26 06:19:17;;;;;;;28.08;24.95;;;17.90;99.90;;;;;;5075750;28;20097;-81
2022/06/26 06:21:43;;;;;;;29.35;26.20;;;18.00;99.90;;;;;;5061711;28;20047;-80
2022/06/26 06:24:09;;;;;;;31.08;24.67;;;17.80;99.90;;;;;;5085659;28;20087;-82
2022/06/26 06:26:35;;;;;;;28.00;25.02;;;17.90;99.90;;;;;;5073473;28;20119;-89
2022/06/26 06:29:01;;;;;;;26.42;23.83;;;17.70;99.90;;;;;;5069004;28;20361;-86
2022/06/26 06:31:26;;;;;;;28.48;25.48;;;18.00;99.90;;;;;;5051973;28;20102;-82
2022/06/26 06:33:52;;;;;;;30.27;25.77;;;17.90;99.90;;;;;;5051131;28;20045;-81
2022/06/26 06:36:18;;;;;;;26.73;23.13;;;18.00;99.90;;;;;;5047003;28;20348;-81
2022/06/26 06:38:43;;;;;;;23.98;21.50;;;17.80;99.90;;;;;;5074972;28;20046;-79
2022/06/26 06:41:09;;;;;;;24.50;22.20;;;17.80;99.90;;;;;;5060619;28;20048;-80
2022/06/26 06:43:35;;;;;;;25.75;21.48;;;17.60;99.90;;;;;;5062839;28;20127;-81
2022/06/26 06:46:00;;;;;;;24.58;22.02;;;17.70;99.90;;;;;;5069438;28;20503;-80
2022/06/26 06:48:26;;;;;;;23.98;20.60;;;17.70;99.90;;;;;;5082535;28;20543;-81
2022/06/26 06:50:52;;;;;;;27.52;22.05;;;17.70;99.90;;;;;;5085744;28;20403;-82
2022/06/26 06:53:21;;;;;;;23.63;21.13;;;17.80;99.90;;;;;;5060674;28;20044;-81
2022/06/26 06:55:47;;;;;;;23.33;19.70;;;17.80;99.90;;;;;;5033036;28;20052;-81
2022/06/26 06:58:13;;;;;;;22.92;20.42;;;17.80;99.90;;;;;;5078657;28;20065;-81
2022/06/26 07:00:39;;;;;;;22.52;20.13;;;18.00;99.90;;;;;;5064751;28;20586;-82
2022/06/26 07:03:05;;;;;;;25.35;20.13;;;18.60;99.90;;;;;;5079498;28;20043;-80
2022/06/26 07:05:32;;;;;;;26.30;18.83;;;19.20;99.90;;;;;;5066373;28;20392;-80
2022/06/26 07:07:59;;;;;;;23.55;18.27;;;19.80;99.90;;;;;;5082030;28;20398;-81
2022/06/26 07:10:25;;;;;;;21.00;16.90;;;21.00;99.90;;;;;;5075426;28;20135;-81
2022/06/26 07:12:55;;;;;;;16.95;15.13;;;21.20;99.90;;;;;;5051867;28;20072;-80
2022/06/26 07:15:21;;;;;;;17.60;13.70;;;21.90;99.90;;;;;;5045613;28;20044;-81
2022/06/26 07:17:47;;;;;;;17.15;13.70;;;22.30;99.90;;;;;;5064244;28;20495;-80
2022/06/26 07:20:13;;;;;;;15.00;11.93;;;22.50;99.90;;;;;;5041228;28;20078;-80
2022/06/26 07:22:39;;;;;;;14.20;12.77;;;22.60;99.90;;;;;;5050348;28;20129;-82
2022/06/26 07:25:05;;;;;;;14.63;13.07;;;22.40;99.90;;;;;;5085198;28;20094;-80
2022/06/26 07:27:31;;;;;;;14.38;13.00;;;21.50;99.90;;;;;;5086658;28;20863;-81
2022/06/26 07:29:57;;;;;;;14.38;12.85;;;20.90;99.90;;;;;;5060852;28;20513;-81
2022/06/26 07:32:22;;;;;;;14.05;11.98;;;20.90;99.90;;;;;;5046507;28;20044;-81
2022/06/26 07:34:48;;;;;;;15.45;13.38;;;21.40;99.90;;;;;;5067570;28;20399;-82
2022/06/26 07:37:14;;;;;;;14.30;11.50;;;22.10;99.90;;;;;;5080346;28;20036;-82
2022/06/26 07:39:40;;;;;;;13.02;10.77;;;22.50;99.90;;;;;;5070718;28;20094;-82
2022/06/26 07:42:06;;;;;;;11.90;10.48;;;21.70;99.90;;;;;;5049145;28;20092;-82
2022/06/26 07:44:32;;;;;;;10.10;9.10;;;20.90;99.90;;;;;;5071580;28;20028;-81
2022/06/26 07:46:57;;;;;;;9.43;6.95;;;20.20;99.90;;;;;;5073220;28;20418;-83
2022/06/26 07:49:23;;;;;;;9.13;7.63;;;19.60;99.90;;;;;;5081861;28;20032;-82
2022/06/26 07:51:50;;;;;;;11.32;9.45;;;19.40;99.90;;;;;;5087798;28;20097;-83
2022/06/26 07:54:16;;;;;;;11.85;9.55;;;19.10;99.90;;;;;;5089319;28;20044;-82
2022/06/26 07:56:42;;;;;;;12.13;9.95;;;19.00;99.90;;;;;;5085715;28;20056;-81
2022/06/26 07:59:08;;;;;;;10.75;9.75;;;19.30;99.90;;;;;;5064768;28;20523;-82
2022/06/26 08:01:34;;;;;;;12.20;9.82;;;19.70;99.90;;;;;;5059250;28;20050;-83
2022/06/26 08:04:01;;;;;;;11.15;10.02;;;19.90;99.90;;;;;;5067862;28;20039;-81
2022/06/26 08:06:29;;;;;;;11.60;9.90;;;20.30;99.90;;;;;;5053887;28;20043;-85
2022/06/26 08:08:56;;;;;;;12.40;8.93;;;20.20;99.90;;;;;;5067091;28;20162;-83
2022/06/26 08:11:22;;;;;;;8.90;7.05;;;20.00;99.90;;;;;;5068296;28;20360;-82
2022/06/26 08:13:48;;;;;;;7.35;5.40;;;20.00;99.90;;;;;;5049116;28;20036;-81
2022/06/26 08:16:14;;;;;;;7.13;6.28;;;20.20;99.90;;;;;;5065740;28;20028;-82
2022/06/26 08:18:41;;;;;;;8.02;6.00;;;20.10;99.90;;;;;;5047568;28;20045;-82
2022/06/26 08:23:51;;;;;;;7.75;4.75;;;20.50;99.90;;;;;;5051662;28;20051;-83
2022/06/26 08:26:17;;;;;;;6.28;3.38;;;20.90;99.90;;;;;;5070406;28;20040;-82
2022/06/26 08:28:43;;;;;;;7.57;3.85;;;20.90;99.90;;;;;;5044895;28;20171;-81
2022/06/26 08:31:09;;;;;;;8.00;5.07;;;21.30;99.90;;;;;;5077315;28;20127;-83
2022/06/26 08:33:35;;;;;;;7.63;4.43;;;21.10;99.90;;;;;;5046172;28;20543;-81
2022/06/26 08:36:01;;;;;;;9.63;3.88;;;20.80;99.90;;;;;;5063875;28;20072;-83
2022/06/26 08:38:27;;;;;;;7.28;3.97;;;20.40;99.90;;;;;;5066425;28;20653;-83
2022/06/26 08:40:53;;;;;;;6.38;3.38;;;20.30;99.90;;;;;;5033287;28;20052;-82
2022/06/26 08:43:21;;;;;;;6.72;3.22;;;20.70;99.90;;;;;;5066471;28;20098;-80
2022/06/26 08:45:49;;;;;;;9.60;3.60;;;21.10;99.90;;;;;;5066736;28;20123;-82
2022/06/26 08:48:18;;;;;;;3.08;2.65;;;21.30;99.90;;;;;;5067822;28;20048;-81
2022/06/26 08:50:44;;;;;;;4.47;2.88;;;21.20;99.90;;;;;;5065579;28;20442;-81
2022/06/26 08:53:10;;;;;;;3.50;2.53;;;21.30;99.90;;;;;;5082693;28;20047;-82
2022/06/26 08:55:37;;;;;;;4.07;2.80;;;21.20;99.90;;;;;;5024801;28;20044;-81
2022/06/26 08:58:03;;;;;;;4.97;2.47;;;21.30;99.90;;;;;;5056850;28;20052;-82
2022/06/26 09:00:30;;;;;;;3.85;2.78;;;21.50;99.90;;;;;;5074492;28;20044;-80
2022/06/26 09:02:56;;;;;;;5.03;3.10;;;21.60;99.90;;;;;;5049829;28;20045;-81
2022/06/26 09:05:21;;;;;;;2.33;2.13;;;21.80;99.90;;;;;;5063668;28;20477;-80
2022/06/26 09:07:53;;;;;;;6.20;3.90;;;21.70;99.90;;;;;;5069517;28;20036;-81
2022/06/26 09:10:20;;;;;;;2.65;1.95;;;21.30;99.90;;;;;;5065921;28;20041;-75
2022/06/26 09:12:53;;;;;;;2.00;1.88;;;21.30;99.90;;;;;;5077030;28;20545;-80
2022/06/26 09:15:20;;;;;;;4.68;2.40;;;21.40;99.90;;;;;;5061025;28;20093;-75
2022/06/26 09:18:02;;;;;;;3.00;2.40;;;21.60;99.90;;;;;;5086747;28;20044;-80
2022/06/26 09:20:34;;;;;;;3.92;2.40;;;21.80;99.90;;;;;;5076740;28;20040;-80
2022/06/26 09:23:01;;;;;;;6.00;3.05;;;22.00;99.90;;;;;;5078218;28;20054;-81
2022/06/26 09:25:36;;;;;;;3.30;2.55;;;22.00;99.90;;;;;;5065303;28;20040;-80
2022/06/26 09:28:10;;;;;;;3.65;3.30;;;22.30;99.90;;;;;;5064589;28;20041;-79
2022/06/26 09:30:55;;;;;;;3.72;2.47;;;22.60;99.90;;;;;;5068250;28;20052;-80
2022/06/26 09:33:24;;;;;;;4.45;2.75;;;22.50;99.90;;;;;;5041918;28;20483;-79
2022/06/26 09:35:51;;;;;;;5.47;2.33;;;22.20;99.90;;;;;;5027876;28;20041;-78
2022/06/26 09:38:33;;;;;;;7.38;2.75;;;22.00;99.90;;;;;;5065205;28;20053;-79
2022/06/26 09:41:07;;;;;;;8.00;3.70;;;22.10;99.90;;;;;;5046566;28;20048;-80
2022/06/26 09:43:41;;;;;;;5.07;3.78;;;22.20;99.90;;;;;;5063163;28;20044;-81
2022/06/26 09:46:13;;;;;;;3.50;2.10;;;22.10;99.90;;;;;;5062907;28;20048;-79
2022/06/26 09:48:41;;;;;;;4.93;2.20;;;22.30;99.90;;;;;;5064681;28;20564;-78
2022/06/26 09:51:12;;;;;;;2.92;2.38;;;22.40;99.90;;;;;;5063834;28;20040;-80
2022/06/26 09:53:39;;;;;;;3.05;2.55;;;22.50;99.90;;;;;;5047922;28;20384;-80
2022/06/26 09:56:05;;;;;;;3.92;2.95;;;22.70;99.90;;;;;;5065179;28;20475;-80
2022/06/26 09:58:31;;;;;;;4.70;2.50;;;22.80;99.90;;;;;;5062062;28;20036;-80
2022/06/26 10:06:29;;;;;;;2.13;1.42;;;22.60;99.90;;;;;;5069619;28;20052;-80
2022/06/26 10:09:02;;;;;;;2.25;1.13;;;22.70;99.90;;;;;;5084832;28;20032;-91
2022/06/26 10:11:30;;;;;;;2.53;1.60;;;23.00;99.90;;;;;;5068218;28;20394;-76
2022/06/26 10:14:03;;;;;;;3.63;1.75;;;22.70;99.90;;;;;;5070273;28;20040;-85
2022/06/26 10:17:07;;;;;;;3.80;2.00;;;22.50;99.90;;;;;;5048883;28;20632;-85
2022/06/26 10:19:58;;;;;;;6.50;2.85;;;22.50;99.90;;;;;;5050041;28;20139;-86
2022/06/26 10:22:24;;;;;;;3.10;2.50;;;22.80;99.90;;;;;;5059653;28;20036;-84
2022/06/26 10:24:51;;;;;;;6.20;2.17;;;22.80;99.90;;;;;;5066946;28;20097;-85
2022/06/26 10:27:26;;;;;;;6.53;2.42;;;22.70;99.90;;;;;;5067908;28;20430;-87
2022/06/26 10:30:02;;;;;;;3.08;1.90;;;22.70;99.90;;;;;;5084743;28;20420;-87
2022/06/26 10:32:28;;;;;;;4.45;2.78;;;23.00;99.90;;;;;;5067012;28;20063;-85
2022/06/26 10:34:55;;;;;;;3.35;1.90;;;22.80;99.90;;;;;;5063965;28;20431;-84
2022/06/26 10:37:21;;;;;;;5.90;2.28;;;22.70;99.90;;;;;;5064427;28;20045;-84
2022/06/26 10:39:52;;;;;;;3.80;1.90;;;22.50;99.90;;;;;;5065271;28;20089;-84
2022/06/26 10:45:27;;;;;;;4.90;2.40;;;22.60;99.90;;;;;;5064124;28;20114;-86
2022/06/26 10:47:58;;;;;;;6.47;3.13;;;22.60;99.90;;;;;;5066084;28;20117;-86
2022/06/26 10:50:29;;;;;;;2.63;1.95;;;22.70;99.90;;;;;;5076808;28;20119;-85
2022/06/26 10:53:20;;;;;;;4.03;2.33;;;22.70;99.90;;;;;;5029744;28;20455;-87
2022/06/26 10:55:59;;;;;;;7.80;1.60;;;22.40;99.90;;;;;;5065182;28;20491;-86
2022/06/26 10:58:38;;;;;;;7.65;2.90;;;22.60;99.90;;;;;;5064284;28;20032;-86
2022/06/26 11:01:05;;;;;;;5.32;2.28;;;22.80;99.90;;;;;;5045801;28;20048;-85
2022/06/26 11:03:32;;;;;;;3.70;2.20;;;22.90;99.90;;;;;;5073114;28;20040;-85
2022/06/26 11:06:15;;;;;;;4.40;2.47;;;22.90;99.90;;;;;;5056310;28;20045;-86
2022/06/26 11:08:47;;;;;;;4.07;1.92;;;22.90;99.90;;;;;;5065787;28;20044;-85
2022/06/26 11:11:17;;;;;;;3.85;1.83;;;22.90;99.90;;;;;;5067525;28;20055;-86
2022/06/26 11:14:01;;;;;;;3.40;1.65;;;22.80;99.90;;;;;;5068092;28;20037;-85
2022/06/26 11:16:34;;;;;;;3.20;1.40;;;22.80;99.90;;;;;;5068122;28;20103;-86
2022/06/26 11:19:06;;;;;;;3.50;1.50;;;22.90;99.90;;;;;;5082472;28;20157;-85
2022/06/26 11:21:32;;;;;;;4.15;2.15;;;23.00;99.90;;;;;;5071252;28;20045;-86
2022/06/26 11:23:59;;;;;;;3.75;2.13;;;23.10;99.90;;;;;;5067841;28;20052;-85
2022/06/26 11:26:25;;;;;;;3.17;1.52;;;23.20;99.90;;;;;;5068571;28;20118;-86
2022/06/26 11:28:59;;;;;;;3.38;1.90;;;23.10;99.90;;;;;;5050413;28;20053;-87
2022/06/26 11:31:28;;;;;;;4.55;2.30;;;22.90;99.90;;;;;;5068432;28;20388;-85
2022/06/26 11:33:55;;;;;;;4.25;2.47;;;22.70;99.90;;;;;;5049748;28;20232;-86
2022/06/26 11:36:24;;;;;;;3.13;1.70;;;22.60;99.90;;;;;;5069591;28;20040;-86
2022/06/26 11:38:53;;;;;;;5.25;2.08;;;22.50;99.90;;;;;;5068394;28;20443;-86
2022/06/26 11:41:19;;;;;;;4.03;1.95;;;22.20;99.90;;;;;;5050873;28;20052;-85
2022/06/26 11:43:47;;;;;;;3.13;2.20;;;22.30;99.90;;;;;;5069100;28;20372;-86
2022/06/26 11:46:13;;;;;;;5.93;2.17;;;22.30;99.90;;;;;;5067370;28;20106;-86
2022/06/26 11:48:38;;;;;;;5.47;1.95;;;22.60;99.90;;;;;;5068087;28;20063;-85
2022/06/26 11:51:04;;;;;;;7.80;3.20;;;22.50;99.90;;;;;;5050617;28;20047;-85
2022/06/26 11:53:31;;;;;;;3.03;2.50;;;22.60;99.90;;;;;;5068267;28;20053;-86
2022/06/26 11:56:02;;;;;;;7.43;4.20;;;22.70;99.90;;;;;;5067101;28;20032;-86
2022/06/26 11:58:30;;;;;;;8.00;4.15;;;22.50;99.90;;;;;;5067664;28;20395;-85
2022/06/26 12:01:12;;;;;;;4.80;3.08;;;22.40;99.90;;;;;;5077716;28;20051;-86
2022/06/26 12:03:46;;;;;;;8.07;3.75;;;22.60;99.90;;;;;;5088537;28;20108;-84
2022/06/26 12:06:13;;;;;;;4.95;2.70;;;22.50;99.90;;;;;;5048887;28;20123;-86
2022/06/26 12:08:38;;;;;;;4.28;2.55;;;22.30;99.90;;;;;;5049719;28;20052;-85
2022/06/26 12:11:04;;;;;;;7.07;2.80;;;22.30;99.90;;;;;;5067412;28;20037;-86
2022/06/26 12:13:33;;;;;;;4.95;2.35;;;22.20;99.90;;;;;;5067472;28;20593;-86
2022/06/26 12:16:04;;;;;;;5.47;2.35;;;22.30;99.90;;;;;;5080565;28;20043;-85
2022/06/26 12:18:31;;;;;;;5.82;3.28;;;22.40;99.90;;;;;;5063625;28;20037;-84
2022/06/26 12:20:56;;;;;;;5.78;2.85;;;22.10;99.90;;;;;;5065575;28;20044;-86
2022/06/26 12:23:34;;;;;;;5.68;2.83;;;22.20;99.90;;;;;;5074942;28;20042;-87
2022/06/26 12:26:08;;;;;;;4.82;3.25;;;22.10;99.90;;;;;;5087115;28;20036;-87
2022/06/26 12:28:42;;;;;;;16.25;4.72;;;22.10;99.90;;;;;;5087411;28;20078;-85
2022/06/26 12:31:08;;;;;;;8.50;3.83;;;22.10;99.90;;;;;;5056209;28;20048;-87
2022/06/26 12:33:34;;;;;;;6.35;4.07;;;22.00;99.90;;;;;;5051226;28;20055;-86
2022/06/26 12:36:00;;;;;;;4.47;3.28;;;21.90;99.90;;;;;;5034620;28;20348;-86
2022/06/26 12:38:27;;;;;;;7.07;4.43;;;21.90;99.90;;;;;;5069063;28;20051;-87
2022/06/26 12:40:53;;;;;;;8.10;3.85;;;22.00;99.90;;;;;;5068883;28;20088;-85
2022/06/26 12:43:19;;;;;;;5.63;3.28;;;22.00;99.90;;;;;;5087195;28;20565;-84
2022/06/26 12:45:45;;;;;;;6.03;3.00;;;22.10;99.90;;;;;;5079378;28;20146;-86
2022/06/26 12:48:11;;;;;;;7.47;2.70;;;22.10;99.90;;;;;;5050877;28;20043;-88
2022/06/26 12:50:37;;;;;;;4.18;2.83;;;22.00;99.90;;;;;;5064190;28;20052;-87
2022/06/26 12:53:02;;;;;;;6.07;2.33;;;22.20;99.90;;;;;;5082795;28;20036;-79
2022/06/26 12:55:28;;;;;;;4.00;2.33;;;22.50;99.90;;;;;;5067716;28;20036;-86
2022/06/26 12:57:54;;;;;;;5.15;2.42;;;22.50;99.90;;;;;;5068517;28;20553;-85